createdAt,value
2023-01-18T00:01:09.214Z,99155.34
2023-01-18T00:03:38.186Z,99144.22
2023-01-18T00:06:07.580Z,99151.84
2023-01-18T00:08:35.805Z,99158.59
2023-01-18T00:11:07.332Z,99143.28
2023-01-18T00:13:34.988Z,99153.53
2023-01-18T00:16:12.021Z,99152.63
2023-01-18T00:18:38.761Z,99140.66
2023-01-18T00:21:08.657Z,99154.31
2023-01-18T00:23:35.959Z,99144.88
2023-01-18T00:26:08.034Z,99147.38
2023-01-18T00:28:34.950Z,99147.25
2023-01-18T00:31:02.060Z,99159.06
2023-01-18T00:33:28.637Z,99151.41
2023-01-18T00:35:59.692Z,99168.31
2023-01-18T00:38:27.422Z,99158.13
2023-01-18T00:40:54.763Z,99164.81
2023-01-18T00:43:40.314Z,99155.47
2023-01-18T00:46:07.900Z,99159.00
2023-01-18T00:48:34.777Z,99148.81
2023-01-18T00:51:01.814Z,99156.38
2023-01-18T00:53:29.654Z,99154.75
2023-01-18T00:55:56.381Z,99148.63
2023-01-18T00:58:23.806Z,99158.91
2023-01-18T01:00:54.286Z,99151.28
2023-01-18T01:03:21.717Z,99141.84
2023-01-18T01:06:06.903Z,99141.81
2023-01-18T01:08:34.463Z,99151.94
2023-01-18T01:11:10.346Z,99165.59
2023-01-18T01:13:57.120Z,99156.97
2023-01-18T01:16:42.411Z,99162.16
2023-01-18T01:19:27.387Z,99167.22
2023-01-18T01:22:12.624Z,99164.63
2023-01-18T01:24:57.615Z,99162.88
2023-01-18T01:27:24.638Z,99170.50
2023-01-18T01:29:52.598Z,99165.34
2023-01-18T01:32:19.176Z,99175.59
2023-01-18T01:34:45.785Z,99166.19
2023-01-18T01:37:12.336Z,99173.75
2023-01-18T01:39:39.822Z,99184.78
2023-01-18T01:42:06.552Z,99169.34
2023-01-18T01:44:34.557Z,99184.69
2023-01-18T01:47:23.595Z,99188.06
2023-01-18T01:49:55.050Z,99187.03
2023-01-18T01:52:28.412Z,99190.47
2023-01-18T01:55:21.305Z,99189.63
2023-01-18T01:57:55.464Z,99191.31
2023-01-18T02:00:24.418Z,99187.00
2023-01-18T02:02:59.404Z,99193.06
2023-01-18T02:05:28.536Z,99198.03
2023-01-18T02:07:58.210Z,99193.72
2023-01-18T02:10:24.769Z,99200.50
2023-01-18T02:12:53.656Z,99197.06
2023-01-18T02:15:31.099Z,99202.06
2023-01-18T02:18:15.530Z,99194.47
2023-01-18T02:21:03.586Z,99214.97
2023-01-18T02:24:27.724Z,99210.78
2023-01-18T02:27:01.003Z,99209.06
2023-01-18T02:29:41.111Z,99211.53
2023-01-18T02:32:14.215Z,99212.34
2023-01-18T02:35:29.447Z,99215.53
2023-01-18T02:38:09.928Z,99220.63
2023-01-18T02:40:56.748Z,99222.31
2023-01-18T02:43:43.203Z,99222.31
2023-01-18T02:46:34.116Z,99223.94
2023-01-18T02:49:13.199Z,99222.03
2023-01-18T02:51:39.806Z,99238.09
2023-01-18T02:54:09.553Z,99233.91
2023-01-18T02:56:49.706Z,99236.38
2023-01-18T02:59:40.940Z,99235.38
2023-01-18T03:02:12.824Z,99233.75
2023-01-18T03:04:44.968Z,99227.75
2023-01-18T03:07:15.276Z,99226.97
2023-01-18T03:09:43.043Z,99229.47
2023-01-18T03:12:46.678Z,99228.66
2023-01-18T03:15:23.648Z,99232.03
2023-01-18T03:17:57.342Z,99231.16
2023-01-18T03:20:28.994Z,99233.69
2023-01-18T03:23:20.150Z,99232.78
2023-01-18T03:25:50.049Z,99234.53
2023-01-18T03:28:40.092Z,99229.22
2023-01-18T03:31:30.898Z,99237.75
2023-01-18T03:34:09.899Z,99234.25
2023-01-18T03:36:41.814Z,99242.81
2023-01-18T03:39:18.785Z,99241.06
2023-01-18T03:41:50.701Z,99228.34
2023-01-18T03:44:22.943Z,99236.03
2023-01-18T03:46:49.685Z,99235.94
2023-01-18T03:49:17.382Z,99235.09
2023-01-18T03:51:47.322Z,99241.84
2023-01-18T03:54:31.933Z,99227.25
2023-01-18T03:57:07.943Z,99242.59
2023-01-18T03:59:37.744Z,99239.84
2023-01-18T04:02:06.442Z,99247.56
2023-01-18T04:04:33.892Z,99243.91
2023-01-18T04:07:00.504Z,99246.50
2023-01-18T04:09:27.263Z,99246.44
2023-01-18T04:11:54.442Z,99246.44
2023-01-18T04:14:21.177Z,99248.13
2023-01-18T04:16:48.766Z,99239.53
2023-01-18T04:19:15.807Z,99227.63
2023-01-18T04:21:42.833Z,99243.84
2023-01-18T04:24:11.470Z,99251.50
2023-01-18T04:26:38.328Z,99247.22
2023-01-18T04:29:05.859Z,99248.88
2023-01-18T04:31:33.062Z,99251.44
2023-01-18T04:34:00.204Z,99254.03
2023-01-18T04:36:28.394Z,99249.66
2023-01-18T04:38:56.300Z,99258.31
2023-01-18T04:41:23.904Z,99248.88
2023-01-18T04:43:51.050Z,99265.19
2023-01-18T04:46:17.975Z,99253.16
2023-01-18T04:48:45.111Z,99265.09
2023-01-18T04:51:14.776Z,99266.69
2023-01-18T04:53:42.619Z,99260.59
2023-01-18T04:56:10.051Z,99267.41
2023-01-18T04:58:37.536Z,99273.25
2023-01-18T05:01:06.102Z,99284.38
2023-01-18T05:03:38.377Z,99272.66
2023-01-18T05:06:07.209Z,99282.91
2023-01-18T05:08:34.649Z,99268.59
2023-01-18T05:11:06.245Z,99277.84
2023-01-18T05:13:33.111Z,99277.94
2023-01-18T05:16:00.975Z,99278.00
2023-01-18T05:18:29.221Z,99283.13
2023-01-18T05:20:56.595Z,99281.47
2023-01-18T05:23:24.509Z,99272.91
2023-01-18T05:25:56.076Z,99287.41
2023-01-18T05:28:26.303Z,99291.47
2023-01-18T05:30:54.625Z,99294.06
2023-01-18T05:33:22.784Z,99289.66
2023-01-18T05:35:55.025Z,99293.91
2023-01-18T05:38:23.305Z,99291.19
2023-01-18T05:40:55.131Z,99309.25
2023-01-18T05:43:24.047Z,99298.41
2023-01-18T05:45:51.188Z,99299.28
2023-01-18T05:48:18.515Z,99302.69
2023-01-18T05:50:47.449Z,99313.03
2023-01-18T05:53:17.821Z,99318.16
2023-01-18T05:55:45.255Z,99312.97
2023-01-18T05:58:12.372Z,99326.56
2023-01-18T06:00:38.934Z,99320.72
2023-01-18T06:03:05.931Z,99322.44
2023-01-18T06:05:32.585Z,99325.81
2023-01-18T06:07:59.550Z,99324.19
2023-01-18T06:10:26.185Z,99320.81
2023-01-18T06:12:53.286Z,99332.06
2023-01-18T06:15:20.539Z,99336.41
2023-01-18T06:17:47.236Z,99328.06
2023-01-18T06:20:14.442Z,99339.09
2023-01-18T06:22:41.043Z,99334.22
2023-01-18T06:25:09.926Z,99333.31
2023-01-18T06:27:37.722Z,99346.16
2023-01-18T06:30:06.322Z,99346.25
2023-01-18T06:32:33.791Z,99353.81
2023-01-18T06:35:00.380Z,99344.47
2023-01-18T06:37:27.659Z,99351.41
2023-01-18T06:39:54.749Z,99345.44
2023-01-18T06:42:21.778Z,99352.88
2023-01-18T06:44:48.446Z,99365.59
2023-01-18T06:47:19.853Z,99355.44
2023-01-18T06:49:48.138Z,99362.25
2023-01-18T06:52:16.515Z,99360.63
2023-01-18T06:54:44.802Z,99358.25
2023-01-18T06:57:12.233Z,99365.97
2023-01-18T06:59:39.637Z,99371.03
2023-01-18T07:02:06.475Z,99377.69
2023-01-18T07:04:35.464Z,99372.56
2023-01-18T07:07:02.332Z,99374.31
2023-01-18T07:09:28.913Z,99375.94
2023-01-18T07:11:55.944Z,99383.53
2023-01-18T07:14:22.967Z,99387.78
2023-01-18T07:16:50.147Z,99391.16
2023-01-18T07:19:17.442Z,99393.63
2023-01-18T07:21:44.661Z,99398.91
2023-01-18T07:24:11.841Z,99398.97
2023-01-18T07:26:39.043Z,99396.31
2023-01-18T07:29:06.221Z,99394.59
2023-01-18T07:31:32.841Z,99394.69
2023-01-18T07:33:59.950Z,99406.69
2023-01-18T07:36:26.951Z,99404.94
2023-01-18T07:38:53.553Z,99417.72
2023-01-18T07:41:20.656Z,99415.97
2023-01-18T07:43:47.344Z,99417.69
2023-01-18T07:46:17.091Z,99423.69
2023-01-18T07:48:44.702Z,99421.38
2023-01-18T07:51:11.700Z,99422.19
2023-01-18T07:53:39.643Z,99423.13
2023-01-18T07:56:09.394Z,99425.50
2023-01-18T07:58:37.219Z,99428.97
2023-01-18T08:01:09.803Z,99428.31
2023-01-18T08:03:37.677Z,99437.75
2023-01-18T08:06:07.332Z,99434.56
2023-01-18T08:08:37.588Z,99444.69
2023-01-18T08:11:07.360Z,99448.13
2023-01-18T08:13:34.604Z,99450.06
2023-01-18T08:16:03.217Z,99451.84
2023-01-18T08:18:30.632Z,99457.03
2023-01-18T08:20:57.248Z,99443.56
2023-01-18T08:23:23.966Z,99450.50
2023-01-18T08:25:50.537Z,99454.84
2023-01-18T08:28:18.387Z,99458.34
2023-01-18T08:30:47.773Z,99460.78
2023-01-18T08:33:14.791Z,99461.78
2023-01-18T08:35:47.584Z,99469.59
2023-01-18T08:38:16.159Z,99473.16
2023-01-18T08:40:43.604Z,99472.41
2023-01-18T08:43:11.746Z,99468.25
2023-01-18T08:45:38.577Z,99466.59
2023-01-18T08:48:08.026Z,99472.72
2023-01-18T08:50:36.286Z,99472.84
2023-01-18T08:53:04.164Z,99477.97
2023-01-18T08:55:31.608Z,99484.13
2023-01-18T08:57:58.462Z,99483.22
2023-01-18T09:00:30.086Z,99489.41
2023-01-18T09:02:57.477Z,99482.53
2023-01-18T09:05:25.733Z,99483.38
2023-01-18T09:07:54.102Z,99487.69
2023-01-18T09:10:21.431Z,99492.75
2023-01-18T09:12:48.473Z,99490.25
2023-01-18T09:15:15.097Z,99487.59
2023-01-18T09:17:41.652Z,99490.13
2023-01-18T09:20:09.818Z,99503.88
2023-01-18T09:22:37.120Z,99499.78
2023-01-18T09:25:05.697Z,99508.38
2023-01-18T09:27:32.465Z,99497.38
2023-01-18T09:30:06.330Z,99513.66
2023-01-18T09:32:32.884Z,99503.53
2023-01-18T09:34:59.541Z,99501.25
2023-01-18T09:37:26.668Z,99504.75
2023-01-18T09:39:53.752Z,99498.84
2023-01-18T09:42:35.081Z,99510.97
2023-01-18T09:45:03.355Z,99512.72
2023-01-18T09:47:46.194Z,99506.19
2023-01-18T09:50:13.208Z,99509.88
2023-01-18T09:52:43.354Z,99513.44
2023-01-18T09:55:16.896Z,99518.63
2023-01-18T09:58:11.641Z,99506.94
2023-01-18T10:00:44.964Z,99516.44
2023-01-18T10:03:21.974Z,99509.72
2023-01-18T10:06:15.542Z,99503.78
2023-01-18T10:09:00.148Z,99516.81
2023-01-18T10:11:37.788Z,99515.19
2023-01-18T10:14:15.253Z,99505.94
2023-01-18T10:16:41.908Z,99503.41
2023-01-18T10:19:25.776Z,99506.16
2023-01-18T10:22:02.841Z,99503.84
2023-01-18T10:24:49.293Z,99503.97
2023-01-18T10:28:01.075Z,99498.28
2023-01-18T10:30:43.826Z,99507.84
2023-01-18T10:33:21.820Z,99498.69
2023-01-18T10:35:52.827Z,99490.25
2023-01-18T10:38:23.359Z,99504.06
2023-01-18T10:41:01.464Z,99509.19
2023-01-18T10:43:31.672Z,99503.25
2023-01-18T10:45:58.565Z,99507.41
2023-01-18T10:48:33.993Z,99503.41
2023-01-18T10:51:06.529Z,99509.47
2023-01-18T10:53:36.124Z,99512.91
2023-01-18T10:56:18.561Z,99516.75
2023-01-18T10:58:54.183Z,99507.56
2023-01-18T11:01:29.330Z,99514.34
2023-01-18T11:04:20.412Z,99493.84
2023-01-18T11:06:49.675Z,99506.84
2023-01-18T11:09:55.764Z,99503.72
2023-01-18T11:12:33.785Z,99516.63
2023-01-18T11:15:30.228Z,99510.63
2023-01-18T11:18:00.734Z,99508.44
2023-01-18T11:20:50.075Z,99506.09
2023-01-18T11:23:32.155Z,99513.06
2023-01-18T11:26:07.467Z,99519.91
2023-01-18T11:28:48.178Z,99520.91
2023-01-18T11:31:22.514Z,99514.09
2023-01-18T11:34:01.887Z,99512.44
2023-01-18T11:36:41.140Z,99513.34
2023-01-18T11:39:28.800Z,99513.38
2023-01-18T11:42:20.561Z,99506.78
2023-01-18T11:45:05.547Z,99512.78
2023-01-18T11:47:51.474Z,99508.53
2023-01-18T11:50:28.309Z,99504.34
2023-01-18T11:53:36.098Z,99509.53
2023-01-18T11:56:37.708Z,99510.28
2023-01-18T11:59:12.935Z,99508.25
2023-01-18T12:02:01.414Z,99512.44
2023-01-18T12:05:05.807Z,99512.59
2023-01-18T12:08:10.783Z,99515.22
2023-01-18T12:10:50.972Z,99511.09
2023-01-18T12:13:43.294Z,99511.09
2023-01-18T12:16:09.843Z,99519.84
2023-01-18T12:18:45.135Z,99521.63
2023-01-18T12:21:25.014Z,99501.16
2023-01-18T12:24:22.274Z,99524.38
2023-01-18T12:26:52.384Z,99526.00
2023-01-18T12:29:50.522Z,99535.22
2023-01-18T12:32:35.158Z,99533.75
2023-01-18T12:35:22.664Z,99531.16
2023-01-18T12:38:24.964Z,99536.16
2023-01-18T12:41:29.110Z,99538.16
2023-01-18T12:44:22.142Z,99522.91
2023-01-18T12:47:15.902Z,99520.16
2023-01-18T12:49:57.950Z,99535.34
2023-01-18T12:52:25.707Z,99542.88
2023-01-18T12:54:57.302Z,99529.22
2023-01-18T12:57:25.839Z,99530.03
2023-01-18T13:00:14.218Z,99529.13
2023-01-18T13:02:45.752Z,99538.50
2023-01-18T13:05:20.628Z,99530.84
2023-01-18T13:08:01.798Z,99516.34
2023-01-18T13:10:29.017Z,99516.47
2023-01-18T13:12:58.005Z,99519.94
2023-01-18T13:16:06.534Z,99513.25
2023-01-18T13:19:00.218Z,99519.09
2023-01-18T13:22:02.398Z,99526.09
2023-01-18T13:24:41.069Z,99527.88
2023-01-18T13:27:13.348Z,99526.25
2023-01-18T13:29:40.858Z,99525.34
2023-01-18T13:32:23.149Z,99532.13
2023-01-18T13:35:21.301Z,99538.84
2023-01-18T13:37:56.224Z,99543.97
2023-01-18T13:40:39.628Z,99533.78
2023-01-18T13:43:26.547Z,99535.50
2023-01-18T13:46:08.269Z,99536.38
2023-01-18T13:48:57.962Z,99540.59
2023-01-18T13:51:37.185Z,99544.03
2023-01-18T13:54:03.846Z,99547.50
2023-01-18T13:56:33.204Z,99550.84
2023-01-18T13:59:03.125Z,99538.00
2023-01-18T14:01:36.303Z,99540.53
2023-01-18T14:04:15.249Z,99543.97
2023-01-18T14:06:45.266Z,99549.88
2023-01-18T14:09:15.073Z,99548.16
2023-01-18T14:11:59.668Z,99540.56
2023-01-18T14:14:30.869Z,99554.09
2023-01-18T14:17:13.082Z,99555.78
2023-01-18T14:20:01.663Z,99567.75
2023-01-18T14:22:49.739Z,99559.22
2023-01-18T14:25:53.728Z,99565.16
2023-01-18T14:28:28.505Z,99566.88
2023-01-18T14:30:59.627Z,99564.25
2023-01-18T14:33:36.393Z,99571.13
2023-01-18T14:36:03.853Z,99567.66
2023-01-18T14:38:31.028Z,99579.59
2023-01-18T14:41:05.886Z,99558.28
2023-01-18T14:43:37.194Z,99566.84
2023-01-18T14:46:26.410Z,99568.50
2023-01-18T14:48:57.204Z,99579.44
2023-01-18T14:51:26.627Z,99582.78
2023-01-18T14:53:57.845Z,99586.22
2023-01-18T14:56:26.431Z,99585.38
2023-01-18T14:59:00.520Z,99592.16
2023-01-18T15:01:33.376Z,99586.16
2023-01-18T15:04:02.916Z,99591.19
2023-01-18T15:06:29.388Z,99590.44
2023-01-18T15:08:56.728Z,99599.75
2023-01-18T15:11:24.457Z,99602.31
2023-01-18T15:13:53.972Z,99601.44
2023-01-18T15:16:24.134Z,99609.00
2023-01-18T15:18:52.991Z,99599.59
2023-01-18T15:21:35.291Z,99596.06
2023-01-18T15:24:06.473Z,99601.28
2023-01-18T15:26:42.597Z,99608.81
2023-01-18T15:29:15.437Z,99611.34
2023-01-18T15:31:49.866Z,99607.09
2023-01-18T15:34:18.403Z,99602.84
2023-01-18T15:36:45.585Z,99608.81
2023-01-18T15:39:13.945Z,99615.47
2023-01-18T15:41:43.705Z,99631.69
2023-01-18T15:44:51.788Z,99627.47
2023-01-18T15:47:29.256Z,99627.41
2023-01-18T15:49:58.937Z,99636.72
2023-01-18T15:52:35.358Z,99640.84
2023-01-18T15:55:06.588Z,99640.81
2023-01-18T15:57:37.316Z,99625.53
2023-01-18T16:00:05.927Z,99636.66
2023-01-18T16:02:32.985Z,99636.59
2023-01-18T16:05:29.380Z,99639.19
2023-01-18T16:08:20.236Z,99635.69
2023-01-18T16:10:54.696Z,99630.53
2023-01-18T16:13:31.793Z,99632.19
2023-01-18T16:16:17.081Z,99641.50
2023-01-18T16:18:48.140Z,99632.03
2023-01-18T16:21:22.829Z,99633.72
2023-01-18T16:23:51.787Z,99636.28
2023-01-18T16:26:23.083Z,99637.97
2023-01-18T16:28:51.324Z,99628.47
2023-01-18T16:31:21.236Z,99641.28
2023-01-18T16:33:47.808Z,99648.09
2023-01-18T16:36:17.211Z,99649.94
2023-01-18T16:38:43.864Z,99641.41
2023-01-18T16:41:11.410Z,99635.56
2023-01-18T16:43:38.476Z,99638.81
2023-01-18T16:46:05.180Z,99634.41
2023-01-18T16:48:33.604Z,99640.47
2023-01-18T16:51:01.325Z,99654.91
2023-01-18T16:53:29.085Z,99652.47
2023-01-18T16:55:56.723Z,99649.13
2023-01-18T16:58:24.184Z,99655.97
2023-01-18T17:00:54.841Z,99666.91
2023-01-18T17:03:21.754Z,99667.88
2023-01-18T17:05:51.456Z,99672.13
2023-01-18T17:08:18.539Z,99660.91
2023-01-18T17:10:48.136Z,99672.00
2023-01-18T17:13:14.931Z,99672.75
2023-01-18T17:15:42.509Z,99688.03
2023-01-18T17:18:14.680Z,99689.72
2023-01-18T17:20:41.784Z,99691.44
2023-01-18T17:23:08.446Z,99694.94
2023-01-18T17:25:36.709Z,99688.97
2023-01-18T17:28:04.757Z,99698.38
2023-01-18T17:30:32.843Z,99689.03
2023-01-18T17:32:59.664Z,99675.50
2023-01-18T17:35:28.494Z,99686.50
2023-01-18T17:38:01.080Z,99693.47
2023-01-18T17:40:41.936Z,99697.75
2023-01-18T17:43:33.001Z,99698.59
2023-01-18T17:46:05.833Z,99703.75
2023-01-18T17:48:32.570Z,99691.78
2023-01-18T17:50:59.368Z,99696.19
2023-01-18T17:53:26.286Z,99695.28
2023-01-18T17:55:53.023Z,99705.56
2023-01-18T17:58:19.523Z,99707.25
2023-01-18T18:00:46.174Z,99711.56
2023-01-18T18:03:13.328Z,99703.03
2023-01-18T18:05:40.153Z,99723.56
2023-01-18T18:08:07.705Z,99710.88
2023-01-18T18:10:34.293Z,99716.88
2023-01-18T18:13:01.162Z,99722.03
2023-01-18T18:15:28.081Z,99717.78
2023-01-18T18:17:54.639Z,99717.00
2023-01-18T18:20:22.819Z,99727.09
2023-01-18T18:22:49.591Z,99738.94
2023-01-18T18:25:16.371Z,99741.53
2023-01-18T18:27:47.157Z,99735.53
2023-01-18T18:30:15.251Z,99743.19
2023-01-18T18:32:41.792Z,99747.47
2023-01-18T18:35:24.466Z,99735.63
2023-01-18T18:37:53.570Z,99739.91
2023-01-18T18:40:20.446Z,99750.91
2023-01-18T18:43:00.803Z,99745.81
2023-01-18T18:45:30.573Z,99743.28
2023-01-18T18:47:57.083Z,99759.44
2023-01-18T18:50:23.815Z,99762.88
2023-01-18T18:52:50.441Z,99764.56
2023-01-18T18:55:17.579Z,99758.63
2023-01-18T18:57:44.112Z,99764.56
2023-01-18T19:00:11.313Z,99768.91
2023-01-18T19:02:37.959Z,99772.25
2023-01-18T19:05:05.872Z,99779.00
2023-01-18T19:07:35.080Z,99771.28
2023-01-18T19:10:02.099Z,99774.63
2023-01-18T19:12:28.688Z,99779.69
2023-01-18T19:14:55.261Z,99783.94
2023-01-18T19:17:30.441Z,99785.63
2023-01-18T19:19:57.494Z,99800.84
2023-01-18T19:22:24.050Z,99820.38
2023-01-18T19:24:50.627Z,99811.97
2023-01-18T19:27:17.309Z,99821.31
2023-01-18T19:29:44.470Z,99818.69
2023-01-18T19:32:11.063Z,99813.47
2023-01-18T19:34:41.159Z,99822.66
2023-01-18T19:37:07.746Z,99819.97
2023-01-18T19:39:38.142Z,99815.44
2023-01-18T19:42:06.597Z,99814.50
2023-01-18T19:44:33.204Z,99814.28
2023-01-18T19:47:00.337Z,99828.06
2023-01-18T19:49:27.050Z,99823.72
2023-01-18T19:51:54.921Z,99819.47
2023-01-18T19:54:22.158Z,99811.69
2023-01-18T19:56:48.912Z,99815.09
2023-01-18T19:59:16.062Z,99814.25
2023-01-18T20:01:43.598Z,99816.00
2023-01-18T20:04:12.862Z,99821.97
2023-01-18T20:06:39.764Z,99817.69
2023-01-18T20:09:18.452Z,99811.69
2023-01-18T20:11:46.783Z,99817.78
2023-01-18T20:14:13.334Z,99808.47
2023-01-18T20:16:40.695Z,99817.06
2023-01-18T20:19:07.384Z,99819.63
2023-01-18T20:21:34.431Z,99818.81
2023-01-18T20:24:01.064Z,99836.75
2023-01-18T20:26:36.408Z,99843.44
2023-01-18T20:29:06.817Z,99831.75
2023-01-18T20:31:36.162Z,99837.63
2023-01-18T20:34:03.986Z,99833.34
2023-01-18T20:36:30.605Z,99838.44
2023-01-18T20:38:57.850Z,99834.25
2023-01-18T20:41:24.368Z,99836.66
2023-01-18T20:43:51.159Z,99854.59
2023-01-18T20:46:18.265Z,99850.28
2023-01-18T20:48:44.844Z,99847.03
2023-01-18T20:51:11.953Z,99846.09
2023-01-18T20:53:39.096Z,99852.06
2023-01-18T20:56:19.981Z,99845.19
2023-01-18T20:58:54.055Z,99837.47
2023-01-18T21:01:20.747Z,99838.09
2023-01-18T21:03:53.538Z,99841.44
2023-01-18T21:06:20.249Z,99842.94
2023-01-18T21:08:46.787Z,99835.13
2023-01-18T21:11:15.563Z,99835.03
2023-01-18T21:13:42.124Z,99846.91
2023-01-18T21:16:08.730Z,99852.56
2023-01-18T21:18:37.706Z,99879.88
2023-01-18T21:21:04.580Z,99879.94
2023-01-18T21:23:31.244Z,99886.88
2023-01-18T21:25:59.891Z,99876.81
2023-01-18T21:28:27.028Z,99870.13
2023-01-18T21:30:55.668Z,99873.56
2023-01-18T21:33:23.624Z,99889.00
2023-01-18T21:35:50.721Z,99899.19
2023-01-18T21:38:17.268Z,99894.09
2023-01-18T21:40:44.936Z,99889.00
2023-01-18T21:43:41.887Z,99909.63
2023-01-18T21:46:10.886Z,99924.06
2023-01-18T21:48:37.498Z,99937.72
2023-01-18T21:51:24.154Z,99932.41
2023-01-18T21:54:29.145Z,99928.66
2023-01-18T21:56:56.151Z,99929.22
2023-01-18T21:59:23.152Z,99925.91
2023-01-18T22:01:49.786Z,99916.56
2023-01-18T22:04:34.905Z,99930.91
2023-01-18T22:07:02.229Z,99929.41
2023-01-18T22:09:30.203Z,99935.28
2023-01-18T22:11:57.517Z,99941.41
2023-01-18T22:14:24.861Z,99942.22
2023-01-18T22:16:51.454Z,99931.94
2023-01-18T22:19:19.199Z,99940.66
2023-01-18T22:21:46.982Z,99943.19
2023-01-18T22:24:14.826Z,99941.50
2023-01-18T22:26:42.254Z,99934.63
2023-01-18T22:29:09.589Z,99942.25
2023-01-18T22:31:36.527Z,99931.16
2023-01-18T22:34:05.295Z,99936.31
2023-01-18T22:36:33.199Z,99934.59
2023-01-18T22:39:00.238Z,99936.28
2023-01-18T22:41:28.522Z,99944.88
2023-01-18T22:43:56.324Z,99955.88
2023-01-18T22:46:23.927Z,99953.50
2023-01-18T22:48:50.897Z,99951.19
2023-01-18T22:51:21.802Z,99945.84
2023-01-18T22:53:49.519Z,99950.91
2023-01-18T22:56:21.556Z,99939.88
2023-01-18T22:58:49.498Z,99943.81
2023-01-18T23:01:24.909Z,99949.56
2023-01-18T23:03:53.360Z,99947.03
2023-01-18T23:06:21.454Z,99939.28
2023-01-18T23:08:48.248Z,99955.50
2023-01-18T23:11:21.991Z,99949.50
2023-01-18T23:14:12.785Z,99951.22
2023-01-18T23:16:58.384Z,99962.28
2023-01-18T23:19:28.132Z,99961.44
2023-01-18T23:21:56.582Z,99954.59
2023-01-18T23:24:23.528Z,99959.00
2023-01-18T23:26:50.423Z,99950.53
2023-01-18T23:29:17.350Z,99960.66
2023-01-18T23:31:44.488Z,99960.72
2023-01-18T23:34:11.184Z,99958.22
2023-01-18T23:36:38.444Z,99951.28
2023-01-18T23:39:23.478Z,99961.56
2023-01-18T23:42:08.720Z,99961.63
2023-01-18T23:44:53.829Z,99960.81
2023-01-18T23:47:38.753Z,99951.50
2023-01-18T23:50:25.407Z,99952.41
2023-01-18T23:53:10.585Z,99950.66
2023-01-18T23:55:37.656Z,99949.03
2023-01-18T23:58:04.660Z,99960.16
